sensor_id;sensor_type;location;lat;lon;timestamp;P1;durP1;ratioP1;P2;durP2;ratioP2
42866;SDS011;39461;40.948;73.006;2023-09-30T00:04:46;21.40;;;11.20;;
42866;SDS011;39461;40.948;73.006;2023-09-30T00:07:21;17.58;;;11.40;;
42866;SDS011;39461;40.948;73.006;2023-09-30T00:09:56;20.42;;;11.35;;
42866;SDS011;39461;40.948;73.006;2023-09-30T00:12:23;17.13;;;11.25;;
42866;SDS011;39461;40.948;73.006;2023-09-30T00:14:58;15.75;;;11.48;;
42866;SDS011;39461;40.948;73.006;2023-09-30T00:17:33;15.68;;;10.05;;
42866;SDS011;39461;40.948;73.006;2023-09-30T00:20:08;14.30;;;10.43;;
42866;SDS011;39461;40.948;73.006;2023-09-30T00:22:43;17.40;;;10.60;;
42866;SDS011;39461;40.948;73.006;2023-09-30T00:25:18;18.48;;;11.20;;
42866;SDS011;39461;40.948;73.006;2023-09-30T00:27:54;18.67;;;12.15;;
42866;SDS011;39461;40.948;73.006;2023-09-30T00:30:29;15.93;;;10.80;;
42866;SDS011;39461;40.948;73.006;2023-09-30T00:33:04;13.98;;;10.70;;
42866;SDS011;39461;40.948;73.006;2023-09-30T00:35:39;18.75;;;11.15;;
42866;SDS011;39461;40.948;73.006;2023-09-30T00:38:14;19.05;;;10.32;;
42866;SDS011;39461;40.948;73.006;2023-09-30T00:40:49;21.63;;;11.18;;
42866;SDS011;39461;40.948;73.006;2023-09-30T00:43:24;18.33;;;11.68;;
42866;SDS011;39461;40.948;73.006;2023-09-30T00:48:54;19.45;;;11.90;;
42866;SDS011;39461;40.948;73.006;2023-09-30T00:51:30;19.95;;;11.30;;
42866;SDS011;39461;40.948;73.006;2023-09-30T00:54:07;17.00;;;11.38;;
42866;SDS011;39461;40.948;73.006;2023-09-30T00:56:35;16.15;;;11.13;;
42866;SDS011;39461;40.948;73.006;2023-09-30T00:59:03;18.40;;;10.18;;
42866;SDS011;39461;40.948;73.006;2023-09-30T01:01:38;15.52;;;10.80;;
42866;SDS011;39461;40.948;73.006;2023-09-30T01:07:14;19.10;;;11.18;;
42866;SDS011;39461;40.948;73.006;2023-09-30T01:09:49;15.93;;;10.93;;
42866;SDS011;39461;40.948;73.006;2023-09-30T01:12:24;17.52;;;11.10;;
42866;SDS011;39461;40.948;73.006;2023-09-30T01:14:59;16.60;;;10.73;;
42866;SDS011;39461;40.948;73.006;2023-09-30T01:17:32;16.00;;;10.23;;
42866;SDS011;39461;40.948;73.006;2023-09-30T01:20:05;18.27;;;11.43;;
42866;SDS011;39461;40.948;73.006;2023-09-30T01:22:40;13.98;;;11.45;;
42866;SDS011;39461;40.948;73.006;2023-09-30T01:25:13;12.45;;;10.45;;
42866;SDS011;39461;40.948;73.006;2023-09-30T01:27:46;16.90;;;9.98;;
42866;SDS011;39461;40.948;73.006;2023-09-30T01:30:19;15.23;;;10.00;;
42866;SDS011;39461;40.948;73.006;2023-09-30T01:32:54;16.75;;;10.25;;
42866;SDS011;39461;40.948;73.006;2023-09-30T01:35:27;16.50;;;10.45;;
42866;SDS011;39461;40.948;73.006;2023-09-30T01:38:02;16.52;;;10.80;;
42866;SDS011;39461;40.948;73.006;2023-09-30T01:40:36;20.48;;;11.60;;
42866;SDS011;39461;40.948;73.006;2023-09-30T01:43:15;20.30;;;11.45;;
42866;SDS011;39461;40.948;73.006;2023-09-30T01:45:48;20.63;;;11.52;;
42866;SDS011;39461;40.948;73.006;2023-09-30T01:48:27;19.15;;;10.23;;
42866;SDS011;39461;40.948;73.006;2023-09-30T01:51:00;14.50;;;10.88;;
42866;SDS011;39461;40.948;73.006;2023-09-30T01:53:33;19.33;;;11.57;;
42866;SDS011;39461;40.948;73.006;2023-09-30T01:56:06;20.23;;;11.27;;
42866;SDS011;39461;40.948;73.006;2023-09-30T01:58:41;22.42;;;11.07;;
42866;SDS011;39461;40.948;73.006;2023-09-30T02:01:14;21.88;;;11.43;;
42866;SDS011;39461;40.948;73.006;2023-09-30T02:03:47;13.65;;;10.48;;
42866;SDS011;39461;40.948;73.006;2023-09-30T02:06:21;16.13;;;10.18;;
42866;SDS011;39461;40.948;73.006;2023-09-30T02:08:48;18.88;;;11.00;;
42866;SDS011;39461;40.948;73.006;2023-09-30T02:11:25;22.90;;;11.43;;
42866;SDS011;39461;40.948;73.006;2023-09-30T02:14:04;18.23;;;12.40;;
42866;SDS011;39461;40.948;73.006;2023-09-30T02:16:42;19.70;;;11.05;;
42866;SDS011;39461;40.948;73.006;2023-09-30T02:19:17;17.10;;;11.50;;
42866;SDS011;39461;40.948;73.006;2023-09-30T02:21:53;23.33;;;13.40;;
42866;SDS011;39461;40.948;73.006;2023-09-30T02:24:28;25.40;;;14.15;;
42866;SDS011;39461;40.948;73.006;2023-09-30T02:27:03;21.90;;;11.80;;
42866;SDS011;39461;40.948;73.006;2023-09-30T02:32:40;19.20;;;11.05;;
42866;SDS011;39461;40.948;73.006;2023-09-30T02:35:15;20.88;;;13.15;;
42866;SDS011;39461;40.948;73.006;2023-09-30T02:37:50;20.15;;;12.40;;
42866;SDS011;39461;40.948;73.006;2023-09-30T02:40:25;20.58;;;12.85;;
42866;SDS011;39461;40.948;73.006;2023-09-30T02:43:00;18.92;;;12.55;;
42866;SDS011;39461;40.948;73.006;2023-09-30T02:45:35;23.90;;;13.10;;
42866;SDS011;39461;40.948;73.006;2023-09-30T02:48:04;20.92;;;12.48;;
42866;SDS011;39461;40.948;73.006;2023-09-30T02:50:38;18.35;;;10.88;;
42866;SDS011;39461;40.948;73.006;2023-09-30T02:53:13;22.13;;;10.68;;
42866;SDS011;39461;40.948;73.006;2023-09-30T02:55:43;27.30;;;11.35;;
42866;SDS011;39461;40.948;73.006;2023-09-30T02:58:13;25.58;;;11.55;;
42866;SDS011;39461;40.948;73.006;2023-09-30T03:00:48;24.60;;;12.57;;
42866;SDS011;39461;40.948;73.006;2023-09-30T03:03:23;20.00;;;12.95;;
42866;SDS011;39461;40.948;73.006;2023-09-30T03:05:59;25.88;;;13.20;;
42866;SDS011;39461;40.948;73.006;2023-09-30T03:08:34;20.17;;;12.77;;
42866;SDS011;39461;40.948;73.006;2023-09-30T03:11:09;20.50;;;11.73;;
42866;SDS011;39461;40.948;73.006;2023-09-30T03:13:44;16.40;;;9.52;;
42866;SDS011;39461;40.948;73.006;2023-09-30T03:16:29;21.17;;;11.75;;
42866;SDS011;39461;40.948;73.006;2023-09-30T03:19:04;18.92;;;10.68;;
42866;SDS011;39461;40.948;73.006;2023-09-30T03:24:38;16.85;;;10.00;;
42866;SDS011;39461;40.948;73.006;2023-09-30T03:27:14;21.20;;;10.15;;
42866;SDS011;39461;40.948;73.006;2023-09-30T03:29:49;20.30;;;10.07;;
42866;SDS011;39461;40.948;73.006;2023-09-30T03:32:24;16.48;;;9.63;;
42866;SDS011;39461;40.948;73.006;2023-09-30T03:35:00;18.65;;;10.63;;
42866;SDS011;39461;40.948;73.006;2023-09-30T03:37:35;18.83;;;10.98;;
42866;SDS011;39461;40.948;73.006;2023-09-30T03:40:10;16.40;;;10.48;;
42866;SDS011;39461;40.948;73.006;2023-09-30T03:42:48;21.00;;;11.25;;
42866;SDS011;39461;40.948;73.006;2023-09-30T03:45:23;15.30;;;9.50;;
42866;SDS011;39461;40.948;73.006;2023-09-30T03:47:58;15.88;;;9.68;;
42866;SDS011;39461;40.948;73.006;2023-09-30T03:50:35;12.93;;;9.60;;
42866;SDS011;39461;40.948;73.006;2023-09-30T03:53:11;15.80;;;9.52;;
42866;SDS011;39461;40.948;73.006;2023-09-30T03:55:46;21.48;;;11.60;;
42866;SDS011;39461;40.948;73.006;2023-09-30T03:58:21;22.65;;;11.32;;
42866;SDS011;39461;40.948;73.006;2023-09-30T04:00:57;16.33;;;11.38;;
42866;SDS011;39461;40.948;73.006;2023-09-30T04:03:32;16.65;;;10.10;;
42866;SDS011;39461;40.948;73.006;2023-09-30T04:06:07;20.00;;;10.23;;
42866;SDS011;39461;40.948;73.006;2023-09-30T04:11:43;16.70;;;9.95;;
42866;SDS011;39461;40.948;73.006;2023-09-30T04:14:20;17.92;;;10.23;;
42866;SDS011;39461;40.948;73.006;2023-09-30T04:16:55;16.00;;;8.25;;
42866;SDS011;39461;40.948;73.006;2023-09-30T04:19:28;20.25;;;9.13;;
42866;SDS011;39461;40.948;73.006;2023-09-30T04:22:03;16.85;;;9.40;;
42866;SDS011;39461;40.948;73.006;2023-09-30T04:24:36;13.73;;;8.18;;
42866;SDS011;39461;40.948;73.006;2023-09-30T04:27:09;22.25;;;9.40;;
42866;SDS011;39461;40.948;73.006;2023-09-30T04:29:43;17.58;;;8.30;;
42866;SDS011;39461;40.948;73.006;2023-09-30T04:32:18;23.33;;;9.45;;
42866;SDS011;39461;40.948;73.006;2023-09-30T04:34:51;16.58;;;8.35;;
42866;SDS011;39461;40.948;73.006;2023-09-30T04:37:24;14.32;;;8.75;;
42866;SDS011;39461;40.948;73.006;2023-09-30T04:39:57;20.40;;;9.30;;
42866;SDS011;39461;40.948;73.006;2023-09-30T04:42:30;17.63;;;8.30;;
42866;SDS011;39461;40.948;73.006;2023-09-30T04:45:03;15.63;;;7.72;;
42866;SDS011;39461;40.948;73.006;2023-09-30T04:47:39;21.45;;;8.77;;
42866;SDS011;39461;40.948;73.006;2023-09-30T04:50:16;15.63;;;8.05;;
42866;SDS011;39461;40.948;73.006;2023-09-30T04:52:53;17.95;;;7.82;;
42866;SDS011;39461;40.948;73.006;2023-09-30T04:55:21;20.05;;;8.15;;
42866;SDS011;39461;40.948;73.006;2023-09-30T04:57:50;19.13;;;7.95;;
42866;SDS011;39461;40.948;73.006;2023-09-30T05:00:26;12.15;;;6.20;;
42866;SDS011;39461;40.948;73.006;2023-09-30T05:06:00;11.95;;;6.03;;
42866;SDS011;39461;40.948;73.006;2023-09-30T05:08:36;15.50;;;6.85;;
42866;SDS011;39461;40.948;73.006;2023-09-30T05:14:09;9.75;;;6.03;;
42866;SDS011;39461;40.948;73.006;2023-09-30T05:16:40;17.17;;;6.13;;
42866;SDS011;39461;40.948;73.006;2023-09-30T05:19:18;12.07;;;6.10;;
42866;SDS011;39461;40.948;73.006;2023-09-30T05:21:52;10.90;;;5.47;;
42866;SDS011;39461;40.948;73.006;2023-09-30T05:24:25;8.68;;;4.65;;
42866;SDS011;39461;40.948;73.006;2023-09-30T05:26:58;11.20;;;4.55;;
42866;SDS011;39461;40.948;73.006;2023-09-30T05:29:33;8.45;;;4.05;;
42866;SDS011;39461;40.948;73.006;2023-09-30T05:32:06;8.35;;;4.00;;
42866;SDS011;39461;40.948;73.006;2023-09-30T05:34:40;9.52;;;5.15;;
42866;SDS011;39461;40.948;73.006;2023-09-30T05:37:13;13.95;;;4.55;;
42866;SDS011;39461;40.948;73.006;2023-09-30T05:39:47;11.27;;;4.82;;
42866;SDS011;39461;40.948;73.006;2023-09-30T05:42:23;8.65;;;5.80;;
42866;SDS011;39461;40.948;73.006;2023-09-30T05:44:56;9.38;;;4.47;;
42866;SDS011;39461;40.948;73.006;2023-09-30T05:47:29;8.13;;;4.53;;
42866;SDS011;39461;40.948;73.006;2023-09-30T05:50:02;10.85;;;4.28;;
42866;SDS011;39461;40.948;73.006;2023-09-30T05:52:29;7.45;;;4.18;;
42866;SDS011;39461;40.948;73.006;2023-09-30T05:55:02;11.65;;;5.40;;
42866;SDS011;39461;40.948;73.006;2023-09-30T05:57:36;13.10;;;7.43;;
42866;SDS011;39461;40.948;73.006;2023-09-30T06:00:11;10.45;;;4.30;;
42866;SDS011;39461;40.948;73.006;2023-09-30T06:03:05;6.18;;;3.63;;
42866;SDS011;39461;40.948;73.006;2023-09-30T06:05:40;16.73;;;4.63;;
42866;SDS011;39461;40.948;73.006;2023-09-30T06:08:15;9.48;;;4.35;;
42866;SDS011;39461;40.948;73.006;2023-09-30T06:10:51;13.68;;;3.83;;
42866;SDS011;39461;40.948;73.006;2023-09-30T06:13:28;14.98;;;4.70;;
42866;SDS011;39461;40.948;73.006;2023-09-30T06:16:05;5.40;;;4.00;;
42866;SDS011;39461;40.948;73.006;2023-09-30T06:21:40;6.90;;;3.20;;
42866;SDS011;39461;40.948;73.006;2023-09-30T06:24:16;9.23;;;3.58;;
42866;SDS011;39461;40.948;73.006;2023-09-30T06:26:53;10.65;;;4.20;;
42866;SDS011;39461;40.948;73.006;2023-09-30T06:29:28;8.27;;;3.65;;
42866;SDS011;39461;40.948;73.006;2023-09-30T06:32:04;9.20;;;3.33;;
42866;SDS011;39461;40.948;73.006;2023-09-30T06:34:33;7.03;;;3.90;;
42866;SDS011;39461;40.948;73.006;2023-09-30T06:37:00;8.80;;;4.88;;
42866;SDS011;39461;40.948;73.006;2023-09-30T06:39:34;6.07;;;3.90;;
42866;SDS011;39461;40.948;73.006;2023-09-30T06:42:07;11.82;;;4.63;;
42866;SDS011;39461;40.948;73.006;2023-09-30T06:44:40;11.00;;;4.53;;
42866;SDS011;39461;40.948;73.006;2023-09-30T06:47:14;13.00;;;4.40;;
42866;SDS011;39461;40.948;73.006;2023-09-30T06:49:47;7.70;;;4.00;;
42866;SDS011;39461;40.948;73.006;2023-09-30T06:52:20;9.20;;;4.10;;
42866;SDS011;39461;40.948;73.006;2023-09-30T06:54:53;7.63;;;3.60;;
42866;SDS011;39461;40.948;73.006;2023-09-30T06:57:20;7.80;;;4.43;;
42866;SDS011;39461;40.948;73.006;2023-09-30T06:59:53;10.90;;;4.57;;
42866;SDS011;39461;40.948;73.006;2023-09-30T07:02:27;7.70;;;4.45;;
42866;SDS011;39461;40.948;73.006;2023-09-30T07:05:00;12.88;;;4.75;;
42866;SDS011;39461;40.948;73.006;2023-09-30T07:07:29;8.02;;;4.25;;
42866;SDS011;39461;40.948;73.006;2023-09-30T07:09:56;8.13;;;4.03;;
42866;SDS011;39461;40.948;73.006;2023-09-30T07:12:32;10.60;;;3.95;;
42866;SDS011;39461;40.948;73.006;2023-09-30T07:15:09;9.60;;;4.18;;
42866;SDS011;39461;40.948;73.006;2023-09-30T07:17:44;9.32;;;3.92;;
42866;SDS011;39461;40.948;73.006;2023-09-30T07:20:21;11.05;;;4.82;;
42866;SDS011;39461;40.948;73.006;2023-09-30T07:23:04;8.65;;;4.70;;
42866;SDS011;39461;40.948;73.006;2023-09-30T07:25:37;12.43;;;4.60;;
42866;SDS011;39461;40.948;73.006;2023-09-30T07:28:10;12.82;;;4.65;;
42866;SDS011;39461;40.948;73.006;2023-09-30T07:30:45;5.95;;;3.13;;
42866;SDS011;39461;40.948;73.006;2023-09-30T07:33:18;7.40;;;3.78;;
42866;SDS011;39461;40.948;73.006;2023-09-30T07:35:53;9.15;;;3.95;;
42866;SDS011;39461;40.948;73.006;2023-09-30T07:38:29;7.95;;;3.80;;
42866;SDS011;39461;40.948;73.006;2023-09-30T07:41:04;7.15;;;3.75;;
42866;SDS011;39461;40.948;73.006;2023-09-30T07:43:41;6.07;;;3.42;;
42866;SDS011;39461;40.948;73.006;2023-09-30T07:46:14;9.85;;;3.80;;
42866;SDS011;39461;40.948;73.006;2023-09-30T07:48:53;8.95;;;3.53;;
42866;SDS011;39461;40.948;73.006;2023-09-30T07:51:26;9.02;;;3.95;;
42866;SDS011;39461;40.948;73.006;2023-09-30T07:54:00;7.72;;;4.28;;
42866;SDS011;39461;40.948;73.006;2023-09-30T07:56:40;8.15;;;3.78;;
42866;SDS011;39461;40.948;73.006;2023-09-30T07:59:13;10.52;;;3.90;;
42866;SDS011;39461;40.948;73.006;2023-09-30T08:01:49;9.23;;;3.95;;
42866;SDS011;39461;40.948;73.006;2023-09-30T08:04:23;9.38;;;3.78;;
42866;SDS011;39461;40.948;73.006;2023-09-30T08:06:58;8.93;;;3.88;;
42866;SDS011;39461;40.948;73.006;2023-09-30T08:09:31;9.48;;;3.80;;
42866;SDS011;39461;40.948;73.006;2023-09-30T08:12:04;15.52;;;3.83;;
42866;SDS011;39461;40.948;73.006;2023-09-30T08:14:34;7.72;;;3.88;;
42866;SDS011;39461;40.948;73.006;2023-09-30T08:17:09;11.75;;;3.72;;
42866;SDS011;39461;40.948;73.006;2023-09-30T08:19:44;10.52;;;4.03;;
42866;SDS011;39461;40.948;73.006;2023-09-30T08:22:21;13.05;;;4.47;;
42866;SDS011;39461;40.948;73.006;2023-09-30T08:24:59;9.60;;;3.92;;
42866;SDS011;39461;40.948;73.006;2023-09-30T08:27:32;13.18;;;4.05;;
42866;SDS011;39461;40.948;73.006;2023-09-30T08:30:06;7.80;;;3.75;;
42866;SDS011;39461;40.948;73.006;2023-09-30T08:32:39;5.78;;;3.35;;
42866;SDS011;39461;40.948;73.006;2023-09-30T08:35:18;14.05;;;3.45;;
42866;SDS011;39461;40.948;73.006;2023-09-30T08:37:58;9.55;;;4.30;;
42866;SDS011;39461;40.948;73.006;2023-09-30T08:40:31;8.60;;;4.35;;
42866;SDS011;39461;40.948;73.006;2023-09-30T08:43:04;15.05;;;3.85;;
42866;SDS011;39461;40.948;73.006;2023-09-30T08:45:39;10.27;;;3.60;;
42866;SDS011;39461;40.948;73.006;2023-09-30T08:48:13;11.98;;;4.30;;
42866;SDS011;39461;40.948;73.006;2023-09-30T08:50:46;7.82;;;3.97;;
42866;SDS011;39461;40.948;73.006;2023-09-30T08:53:21;9.30;;;3.80;;
42866;SDS011;39461;40.948;73.006;2023-09-30T08:55:55;6.72;;;4.05;;
42866;SDS011;39461;40.948;73.006;2023-09-30T08:58:28;12.05;;;3.83;;
42866;SDS011;39461;40.948;73.006;2023-09-30T09:01:03;11.15;;;3.58;;
42866;SDS011;39461;40.948;73.006;2023-09-30T09:03:40;8.00;;;3.80;;
42866;SDS011;39461;40.948;73.006;2023-09-30T09:06:15;9.25;;;3.83;;
42866;SDS011;39461;40.948;73.006;2023-09-30T09:08:50;9.75;;;3.75;;
42866;SDS011;39461;40.948;73.006;2023-09-30T09:11:36;10.55;;;3.47;;
42866;SDS011;39461;40.948;73.006;2023-09-30T09:14:11;12.30;;;3.63;;
42866;SDS011;39461;40.948;73.006;2023-09-30T09:16:54;7.57;;;3.03;;
42866;SDS011;39461;40.948;73.006;2023-09-30T09:19:30;10.27;;;3.25;;
42866;SDS011;39461;40.948;73.006;2023-09-30T09:22:05;10.30;;;3.17;;
42866;SDS011;39461;40.948;73.006;2023-09-30T09:24:40;6.22;;;3.08;;
42866;SDS011;39461;40.948;73.006;2023-09-30T09:27:14;6.88;;;2.75;;
42866;SDS011;39461;40.948;73.006;2023-09-30T09:29:48;9.38;;;3.45;;
42866;SDS011;39461;40.948;73.006;2023-09-30T09:32:23;4.28;;;3.17;;
42866;SDS011;39461;40.948;73.006;2023-09-30T09:35:00;9.73;;;2.92;;
42866;SDS011;39461;40.948;73.006;2023-09-30T09:37:33;7.53;;;2.90;;
42866;SDS011;39461;40.948;73.006;2023-09-30T09:40:07;12.48;;;3.78;;
42866;SDS011;39461;40.948;73.006;2023-09-30T09:42:40;8.23;;;3.08;;
42866;SDS011;39461;40.948;73.006;2023-09-30T09:45:13;7.03;;;2.70;;
42866;SDS011;39461;40.948;73.006;2023-09-30T09:47:47;9.48;;;3.35;;
42866;SDS011;39461;40.948;73.006;2023-09-30T09:50:21;8.93;;;3.55;;
42866;SDS011;39461;40.948;73.006;2023-09-30T09:52:55;7.93;;;3.33;;
42866;SDS011;39461;40.948;73.006;2023-09-30T09:55:32;5.00;;;2.80;;
42866;SDS011;39461;40.948;73.006;2023-09-30T09:58:05;7.95;;;3.33;;
42866;SDS011;39461;40.948;73.006;2023-09-30T10:00:39;6.45;;;2.80;;
42866;SDS011;39461;40.948;73.006;2023-09-30T10:03:13;6.43;;;2.90;;
42866;SDS011;39461;40.948;73.006;2023-09-30T10:05:46;9.65;;;3.28;;
42866;SDS011;39461;40.948;73.006;2023-09-30T10:08:21;8.82;;;3.03;;
42866;SDS011;39461;40.948;73.006;2023-09-30T10:10:56;10.93;;;3.67;;
42866;SDS011;39461;40.948;73.006;2023-09-30T10:17:07;11.45;;;3.05;;
42866;SDS011;39461;40.948;73.006;2023-09-30T10:19:22;5.35;;;2.80;;
42866;SDS011;39461;40.948;73.006;2023-09-30T10:24:47;8.32;;;3.03;;
42866;SDS011;39461;40.948;73.006;2023-09-30T10:30:11;8.40;;;3.00;;
42866;SDS011;39461;40.948;73.006;2023-09-30T10:40:59;8.07;;;2.90;;
42866;SDS011;39461;40.948;73.006;2023-09-30T10:43:40;7.63;;;2.65;;
42866;SDS011;39461;40.948;73.006;2023-09-30T10:49:15;7.63;;;2.60;;
42866;SDS011;39461;40.948;73.006;2023-09-30T10:51:53;6.28;;;2.85;;
42866;SDS011;39461;40.948;73.006;2023-09-30T10:54:25;6.88;;;2.83;;
42866;SDS011;39461;40.948;73.006;2023-09-30T10:56:53;11.57;;;3.50;;
42866;SDS011;39461;40.948;73.006;2023-09-30T10:59:27;6.68;;;2.60;;
42866;SDS011;39461;40.948;73.006;2023-09-30T11:02:19;9.85;;;3.08;;
42866;SDS011;39461;40.948;73.006;2023-09-30T11:04:54;9.85;;;2.80;;
42866;SDS011;39461;40.948;73.006;2023-09-30T11:07:27;9.10;;;3.00;;
42866;SDS011;39461;40.948;73.006;2023-09-30T11:10:02;8.88;;;2.55;;
42866;SDS011;39461;40.948;73.006;2023-09-30T11:12:35;21.90;;;4.53;;
42866;SDS011;39461;40.948;73.006;2023-09-30T11:15:14;14.65;;;2.88;;
42866;SDS011;39461;40.948;73.006;2023-09-30T11:17:48;8.93;;;3.45;;
42866;SDS011;39461;40.948;73.006;2023-09-30T11:20:22;9.65;;;4.07;;
42866;SDS011;39461;40.948;73.006;2023-09-30T11:25:56;10.50;;;3.55;;
42866;SDS011;39461;40.948;73.006;2023-09-30T11:28:38;6.70;;;2.80;;
42866;SDS011;39461;40.948;73.006;2023-09-30T11:31:15;14.07;;;3.20;;
42866;SDS011;39461;40.948;73.006;2023-09-30T11:33:52;15.88;;;3.35;;
42866;SDS011;39461;40.948;73.006;2023-09-30T11:36:27;11.73;;;3.10;;
42866;SDS011;39461;40.948;73.006;2023-09-30T11:39:02;7.25;;;2.75;;
42866;SDS011;39461;40.948;73.006;2023-09-30T11:41:38;8.45;;;2.88;;
42866;SDS011;39461;40.948;73.006;2023-09-30T11:44:22;8.65;;;3.42;;
42866;SDS011;39461;40.948;73.006;2023-09-30T11:46:59;10.43;;;3.45;;
42866;SDS011;39461;40.948;73.006;2023-09-30T11:49:37;8.82;;;2.90;;
42866;SDS011;39461;40.948;73.006;2023-09-30T11:52:12;15.35;;;3.92;;
42866;SDS011;39461;40.948;73.006;2023-09-30T11:54:50;13.82;;;5.15;;
42866;SDS011;39461;40.948;73.006;2023-09-30T11:57:25;12.32;;;4.03;;
42866;SDS011;39461;40.948;73.006;2023-09-30T12:00:00;13.23;;;3.60;;
42866;SDS011;39461;40.948;73.006;2023-09-30T12:02:33;12.82;;;3.50;;
42866;SDS011;39461;40.948;73.006;2023-09-30T12:05:12;13.85;;;3.80;;
42866;SDS011;39461;40.948;73.006;2023-09-30T12:07:45;14.35;;;4.05;;
42866;SDS011;39461;40.948;73.006;2023-09-30T12:10:20;8.77;;;3.85;;
42866;SDS011;39461;40.948;73.006;2023-09-30T12:12:53;8.27;;;3.33;;
42866;SDS011;39461;40.948;73.006;2023-09-30T12:15:26;12.23;;;4.63;;
42866;SDS011;39461;40.948;73.006;2023-09-30T12:17:59;13.07;;;4.60;;
42866;SDS011;39461;40.948;73.006;2023-09-30T12:20:32;11.38;;;4.28;;
42866;SDS011;39461;40.948;73.006;2023-09-30T12:23:05;7.05;;;3.80;;
42866;SDS011;39461;40.948;73.006;2023-09-30T12:25:38;9.75;;;4.40;;
42866;SDS011;39461;40.948;73.006;2023-09-30T12:28:11;11.10;;;4.32;;
42866;SDS011;39461;40.948;73.006;2023-09-30T12:30:45;12.50;;;4.60;;
42866;SDS011;39461;40.948;73.006;2023-09-30T12:33:25;17.15;;;7.38;;
42866;SDS011;39461;40.948;73.006;2023-09-30T12:35:59;14.20;;;6.95;;
42866;SDS011;39461;40.948;73.006;2023-09-30T12:38:34;15.25;;;5.15;;
42866;SDS011;39461;40.948;73.006;2023-09-30T12:41:13;18.67;;;6.05;;
42866;SDS011;39461;40.948;73.006;2023-09-30T12:43:46;22.80;;;6.50;;
42866;SDS011;39461;40.948;73.006;2023-09-30T12:46:13;17.70;;;6.25;;
42866;SDS011;39461;40.948;73.006;2023-09-30T12:48:46;25.70;;;7.45;;
42866;SDS011;39461;40.948;73.006;2023-09-30T12:51:19;26.55;;;7.03;;
42866;SDS011;39461;40.948;73.006;2023-09-30T12:53:52;25.10;;;6.30;;
42866;SDS011;39461;40.948;73.006;2023-09-30T12:56:22;25.17;;;6.45;;
42866;SDS011;39461;40.948;73.006;2023-09-30T12:58:56;24.05;;;6.88;;
42866;SDS011;39461;40.948;73.006;2023-09-30T13:01:29;20.70;;;6.28;;
42866;SDS011;39461;40.948;73.006;2023-09-30T13:04:05;17.48;;;6.35;;
42866;SDS011;39461;40.948;73.006;2023-09-30T13:06:39;24.52;;;6.47;;
42866;SDS011;39461;40.948;73.006;2023-09-30T13:09:06;34.03;;;7.72;;
42866;SDS011;39461;40.948;73.006;2023-09-30T13:11:40;21.83;;;7.70;;
42866;SDS011;39461;40.948;73.006;2023-09-30T13:14:19;28.52;;;9.13;;
42866;SDS011;39461;40.948;73.006;2023-09-30T13:16:53;31.80;;;10.32;;
42866;SDS011;39461;40.948;73.006;2023-09-30T13:19:36;21.33;;;8.45;;
42866;SDS011;39461;40.948;73.006;2023-09-30T13:22:09;32.63;;;9.00;;
42866;SDS011;39461;40.948;73.006;2023-09-30T13:24:44;35.85;;;10.18;;
42866;SDS011;39461;40.948;73.006;2023-09-30T13:27:17;47.85;;;10.45;;
42866;SDS011;39461;40.948;73.006;2023-09-30T13:29:50;34.60;;;10.88;;
42866;SDS011;39461;40.948;73.006;2023-09-30T13:32:26;26.13;;;8.68;;
42866;SDS011;39461;40.948;73.006;2023-09-30T13:35:00;35.20;;;9.43;;
42866;SDS011;39461;40.948;73.006;2023-09-30T13:37:39;41.90;;;14.80;;
42866;SDS011;39461;40.948;73.006;2023-09-30T13:40:14;35.47;;;12.73;;
42866;SDS011;39461;40.948;73.006;2023-09-30T13:42:49;37.28;;;12.68;;
42866;SDS011;39461;40.948;73.006;2023-09-30T13:45:22;39.03;;;14.10;;
42866;SDS011;39461;40.948;73.006;2023-09-30T13:48:00;44.92;;;12.85;;
42866;SDS011;39461;40.948;73.006;2023-09-30T13:50:33;37.42;;;12.48;;
42866;SDS011;39461;40.948;73.006;2023-09-30T13:53:08;46.10;;;12.85;;
42866;SDS011;39461;40.948;73.006;2023-09-30T13:55:43;41.75;;;13.18;;
42866;SDS011;39461;40.948;73.006;2023-09-30T13:58:17;41.65;;;13.40;;
42866;SDS011;39461;40.948;73.006;2023-09-30T14:00:50;40.35;;;14.48;;
42866;SDS011;39461;40.948;73.006;2023-09-30T14:03:24;36.30;;;14.38;;
42866;SDS011;39461;40.948;73.006;2023-09-30T14:05:59;47.53;;;15.85;;
42866;SDS011;39461;40.948;73.006;2023-09-30T14:08:35;54.28;;;16.25;;
42866;SDS011;39461;40.948;73.006;2023-09-30T14:11:02;43.70;;;14.65;;
42866;SDS011;39461;40.948;73.006;2023-09-30T14:13:38;45.20;;;15.88;;
42866;SDS011;39461;40.948;73.006;2023-09-30T14:16:14;36.47;;;16.17;;
42866;SDS011;39461;40.948;73.006;2023-09-30T14:18:48;37.90;;;16.05;;
42866;SDS011;39461;40.948;73.006;2023-09-30T14:21:21;52.83;;;16.15;;
42866;SDS011;39461;40.948;73.006;2023-09-30T14:23:54;49.85;;;17.52;;
42866;SDS011;39461;40.948;73.006;2023-09-30T14:26:27;41.40;;;16.85;;
42866;SDS011;39461;40.948;73.006;2023-09-30T14:29:00;47.70;;;19.23;;
42866;SDS011;39461;40.948;73.006;2023-09-30T14:31:33;51.20;;;19.98;;
42866;SDS011;39461;40.948;73.006;2023-09-30T14:34:01;48.17;;;19.17;;
42866;SDS011;39461;40.948;73.006;2023-09-30T14:36:38;49.67;;;19.48;;
42866;SDS011;39461;40.948;73.006;2023-09-30T14:39:13;63.85;;;19.02;;
42866;SDS011;39461;40.948;73.006;2023-09-30T14:41:49;54.75;;;19.83;;
42866;SDS011;39461;40.948;73.006;2023-09-30T14:47:23;52.97;;;20.40;;
42866;SDS011;39461;40.948;73.006;2023-09-30T14:49:58;69.55;;;22.15;;
42866;SDS011;39461;40.948;73.006;2023-09-30T14:52:34;53.92;;;21.65;;
42866;SDS011;39461;40.948;73.006;2023-09-30T14:55:07;58.35;;;22.45;;
42866;SDS011;39461;40.948;73.006;2023-09-30T14:57:35;69.93;;;26.02;;
42866;SDS011;39461;40.948;73.006;2023-09-30T15:00:06;78.53;;;28.90;;
42866;SDS011;39461;40.948;73.006;2023-09-30T15:02:33;79.38;;;31.92;;
42866;SDS011;39461;40.948;73.006;2023-09-30T15:11:04;62.72;;;23.15;;
42866;SDS011;39461;40.948;73.006;2023-09-30T15:13:39;66.85;;;22.55;;
42866;SDS011;39461;40.948;73.006;2023-09-30T15:16:17;55.75;;;21.77;;
42866;SDS011;39461;40.948;73.006;2023-09-30T15:18:52;48.13;;;17.83;;
42866;SDS011;39461;40.948;73.006;2023-09-30T15:21:29;46.92;;;16.63;;
42866;SDS011;39461;40.948;73.006;2023-09-30T15:24:04;47.38;;;16.48;;
42866;SDS011;39461;40.948;73.006;2023-09-30T15:26:39;51.03;;;15.95;;
42866;SDS011;39461;40.948;73.006;2023-09-30T15:29:15;46.75;;;14.90;;
42866;SDS011;39461;40.948;73.006;2023-09-30T15:31:46;32.95;;;12.77;;
42866;SDS011;39461;40.948;73.006;2023-09-30T15:34:21;47.05;;;14.95;;
42866;SDS011;39461;40.948;73.006;2023-09-30T15:39:55;42.58;;;16.52;;
42866;SDS011;39461;40.948;73.006;2023-09-30T15:42:32;40.22;;;16.23;;
42866;SDS011;39461;40.948;73.006;2023-09-30T15:45:08;42.50;;;15.00;;
42866;SDS011;39461;40.948;73.006;2023-09-30T15:50:42;28.92;;;11.13;;
42866;SDS011;39461;40.948;73.006;2023-09-30T15:53:17;23.08;;;9.63;;
42866;SDS011;39461;40.948;73.006;2023-09-30T15:55:52;32.17;;;9.70;;
42866;SDS011;39461;40.948;73.006;2023-09-30T15:58:27;19.20;;;8.88;;
42866;SDS011;39461;40.948;73.006;2023-09-30T16:01:02;18.30;;;8.85;;
42866;SDS011;39461;40.948;73.006;2023-09-30T16:03:37;15.82;;;7.95;;
42866;SDS011;39461;40.948;73.006;2023-09-30T16:06:10;20.00;;;7.88;;
42866;SDS011;39461;40.948;73.006;2023-09-30T16:08:47;27.50;;;7.25;;